sensor_id;sensor_type;location;lat;lon;timestamp;pressure;altitude;pressure_sealevel;temperature;humidity
61357;BME280;47227;46.752;23.576;2022-08-24T00:17:38;96358.48;;;16.77;91.47
61357;BME280;47227;46.752;23.576;2022-08-24T00:56:31;96374.32;;;16.64;87.41
61357;BME280;47227;46.752;23.576;2022-08-24T02:14:12;96294.55;;;16.31;87.88
61357;BME280;47227;46.752;23.576;2022-08-24T04:59:17;96341.92;;;17.59;89.17
61357;BME280;47227;46.752;23.576;2022-08-24T05:59:06;96363.23;;;18.30;88.80
61357;BME280;47227;46.752;23.576;2022-08-24T06:01:43;96363.02;;;18.38;88.31
61357;BME280;47227;46.752;23.576;2022-08-24T06:04:12;96359.33;;;18.40;88.21
61357;BME280;47227;46.752;23.576;2022-08-24T06:06:41;96358.50;;;18.49;88.25
61357;BME280;47227;46.752;23.576;2022-08-24T06:09:10;96356.58;;;18.58;88.02
61357;BME280;47227;46.752;23.576;2022-08-24T06:11:40;96361.23;;;18.67;87.93
61357;BME280;47227;46.752;23.576;2022-08-24T06:14:14;96367.79;;;18.75;88.01
61357;BME280;47227;46.752;23.576;2022-08-24T06:16:49;96371.71;;;18.73;87.50
61357;BME280;47227;46.752;23.576;2022-08-24T06:19:20;96369.20;;;18.70;87.42
61357;BME280;47227;46.752;23.576;2022-08-24T06:21:52;96374.60;;;18.66;87.90
61357;BME280;47227;46.752;23.576;2022-08-24T06:24:22;96372.99;;;18.69;87.59
61357;BME280;47227;46.752;23.576;2022-08-24T06:27:22;96368.65;;;18.66;88.38
61357;BME280;47227;46.752;23.576;2022-08-24T06:29:59;96366.12;;;18.65;88.53
61357;BME280;47227;46.752;23.576;2022-08-24T06:32:53;96367.36;;;18.75;88.16
61357;BME280;47227;46.752;23.576;2022-08-24T06:35:26;96370.84;;;18.87;87.91
61357;BME280;47227;46.752;23.576;2022-08-24T06:37:56;96368.27;;;18.93;88.22
61357;BME280;47227;46.752;23.576;2022-08-24T06:40:24;96371.00;;;18.90;87.93
61357;BME280;47227;46.752;23.576;2022-08-24T06:42:53;96366.24;;;19.01;87.59
61357;BME280;47227;46.752;23.576;2022-08-24T06:45:34;96373.49;;;19.10;87.46
61357;BME280;47227;46.752;23.576;2022-08-24T06:48:02;96372.29;;;19.12;87.41
61357;BME280;47227;46.752;23.576;2022-08-24T06:50:31;96377.80;;;19.06;87.60
61357;BME280;47227;46.752;23.576;2022-08-24T06:52:59;96382.50;;;19.07;87.50
61357;BME280;47227;46.752;23.576;2022-08-24T06:55:28;96389.14;;;19.10;86.86
61357;BME280;47227;46.752;23.576;2022-08-24T06:57:56;96392.92;;;19.11;86.59
61357;BME280;47227;46.752;23.576;2022-08-24T07:00:25;96395.84;;;19.12;86.44
61357;BME280;47227;46.752;23.576;2022-08-24T07:02:53;96392.43;;;19.15;86.78
61357;BME280;47227;46.752;23.576;2022-08-24T07:05:21;96396.44;;;19.16;86.67
61357;BME280;47227;46.752;23.576;2022-08-24T07:08:12;96394.21;;;19.28;86.40
61357;BME280;47227;46.752;23.576;2022-08-24T07:10:44;96396.38;;;19.36;86.02
61357;BME280;47227;46.752;23.576;2022-08-24T07:13:15;96403.27;;;19.36;85.73
61357;BME280;47227;46.752;23.576;2022-08-24T07:15:52;96405.05;;;19.41;85.00
61357;BME280;47227;46.752;23.576;2022-08-24T07:18:27;96405.35;;;19.48;84.93
61357;BME280;47227;46.752;23.576;2022-08-24T07:21:14;96410.34;;;19.61;84.12
61357;BME280;47227;46.752;23.576;2022-08-24T07:23:48;96411.00;;;19.79;83.80
61357;BME280;47227;46.752;23.576;2022-08-24T07:26:20;96407.45;;;19.92;83.34
61357;BME280;47227;46.752;23.576;2022-08-24T07:28:54;96409.67;;;20.01;82.38
61357;BME280;47227;46.752;23.576;2022-08-24T07:31:31;96416.92;;;20.13;82.64
61357;BME280;47227;46.752;23.576;2022-08-24T07:34:11;96416.21;;;20.21;81.75
61357;BME280;47227;46.752;23.576;2022-08-24T07:37:42;96429.41;;;20.41;82.02
61357;BME280;47227;46.752;23.576;2022-08-24T07:40:15;96431.09;;;20.52;81.69
61357;BME280;47227;46.752;23.576;2022-08-24T07:42:48;96429.20;;;20.58;81.34
61357;BME280;47227;46.752;23.576;2022-08-24T07:45:21;96433.54;;;20.57;79.98
61357;BME280;47227;46.752;23.576;2022-08-24T07:47:51;96441.94;;;20.60;80.37
61357;BME280;47227;46.752;23.576;2022-08-24T07:50:36;96441.32;;;20.63;80.24
61357;BME280;47227;46.752;23.576;2022-08-24T08:06:21;96458.08;;;20.60;79.68
61357;BME280;47227;46.752;23.576;2022-08-24T08:08:55;96461.13;;;20.62;79.84
61357;BME280;47227;46.752;23.576;2022-08-24T08:22:00;96480.61;;;20.89;77.94
61357;BME280;47227;46.752;23.576;2022-08-24T08:25:28;96489.50;;;20.91;77.68
61357;BME280;47227;46.752;23.576;2022-08-24T08:33:16;96496.58;;;20.86;76.48
61357;BME280;47227;46.752;23.576;2022-08-24T08:36:10;96492.68;;;20.86;76.28
61357;BME280;47227;46.752;23.576;2022-08-24T08:38:59;96482.32;;;20.85;76.32
61357;BME280;47227;46.752;23.576;2022-08-24T08:42:38;96474.89;;;20.83;76.48
61357;BME280;47227;46.752;23.576;2022-08-24T08:45:26;96474.64;;;20.83;76.24
61357;BME280;47227;46.752;23.576;2022-08-24T14:27:04;96398.45;;;35.28;27.74
61357;BME280;47227;46.752;23.576;2022-08-24T14:44:50;96393.36;;;36.31;26.11
61357;BME280;47227;46.752;23.576;2022-08-24T14:50:32;96392.75;;;37.32;25.12
61357;BME280;47227;46.752;23.576;2022-08-24T14:53:26;96392.86;;;37.39;25.60
61357;BME280;47227;46.752;23.576;2022-08-24T16:36:17;96386.38;;;32.55;41.09
61357;BME280;47227;46.752;23.576;2022-08-24T16:38:48;96388.70;;;32.00;41.12
61357;BME280;47227;46.752;23.576;2022-08-24T16:41:20;96388.13;;;31.35;43.17
61357;BME280;47227;46.752;23.576;2022-08-24T16:43:49;96384.04;;;30.73;44.62
61357;BME280;47227;46.752;23.576;2022-08-24T16:46:20;96388.00;;;30.31;44.66
61357;BME280;47227;46.752;23.576;2022-08-24T16:48:49;96390.08;;;29.84;45.94
61357;BME280;47227;46.752;23.576;2022-08-24T16:51:17;96394.29;;;29.55;45.93
61357;BME280;47227;46.752;23.576;2022-08-24T16:53:45;96392.48;;;29.12;48.35
61357;BME280;47227;46.752;23.576;2022-08-24T16:56:13;96399.18;;;28.70;48.84
61357;BME280;47227;46.752;23.576;2022-08-24T16:58:45;96400.23;;;28.37;49.67
61357;BME280;47227;46.752;23.576;2022-08-24T17:01:14;96402.10;;;27.99;50.95
61357;BME280;47227;46.752;23.576;2022-08-24T17:03:44;96399.68;;;27.66;50.60
61357;BME280;47227;46.752;23.576;2022-08-24T17:06:17;96400.78;;;27.33;50.68
61357;BME280;47227;46.752;23.576;2022-08-24T17:09:01;96401.80;;;26.92;51.94
61357;BME280;47227;46.752;23.576;2022-08-24T17:11:31;96400.17;;;26.50;52.90
61357;BME280;47227;46.752;23.576;2022-08-24T17:13:59;96398.27;;;26.08;55.85
61357;BME280;47227;46.752;23.576;2022-08-24T17:16:27;96398.71;;;25.82;56.03
61357;BME280;47227;46.752;23.576;2022-08-24T17:18:59;96405.30;;;25.59;56.90
61357;BME280;47227;46.752;23.576;2022-08-24T17:21:30;96406.02;;;25.38;56.48
61357;BME280;47227;46.752;23.576;2022-08-24T17:23:58;96405.24;;;25.25;56.11
61357;BME280;47227;46.752;23.576;2022-08-24T17:26:26;96409.48;;;25.11;56.08
61357;BME280;47227;46.752;23.576;2022-08-24T17:28:58;96410.27;;;25.01;56.07
61357;BME280;47227;46.752;23.576;2022-08-24T17:31:30;96409.30;;;24.90;56.18
61357;BME280;47227;46.752;23.576;2022-08-24T17:33:58;96413.67;;;24.77;56.16
61357;BME280;47227;46.752;23.576;2022-08-24T17:36:27;96415.74;;;24.60;57.27
61357;BME280;47227;46.752;23.576;2022-08-24T17:38:59;96417.61;;;24.49;56.70
61357;BME280;47227;46.752;23.576;2022-08-24T17:41:28;96427.75;;;24.39;56.45
61357;BME280;47227;46.752;23.576;2022-08-24T17:43:57;96434.30;;;24.29;56.58
61357;BME280;47227;46.752;23.576;2022-08-24T17:46:26;96437.17;;;24.16;57.01
61357;BME280;47227;46.752;23.576;2022-08-24T17:48:58;96443.70;;;24.04;57.77
61357;BME280;47227;46.752;23.576;2022-08-24T17:51:26;96446.46;;;23.95;57.25
61357;BME280;47227;46.752;23.576;2022-08-24T17:53:54;96445.48;;;23.91;56.84
61357;BME280;47227;46.752;23.576;2022-08-24T17:56:22;96446.75;;;23.86;57.07
61357;BME280;47227;46.752;23.576;2022-08-24T17:58:51;96446.52;;;23.77;56.87
61357;BME280;47227;46.752;23.576;2022-08-24T18:01:31;96449.58;;;23.69;57.25
61357;BME280;47227;46.752;23.576;2022-08-24T18:03:59;96454.52;;;23.60;57.31
61357;BME280;47227;46.752;23.576;2022-08-24T18:06:27;96457.80;;;23.53;57.31
61357;BME280;47227;46.752;23.576;2022-08-24T18:08:56;96457.27;;;23.47;57.85
61357;BME280;47227;46.752;23.576;2022-08-24T18:11:28;96457.67;;;23.39;57.94
61357;BME280;47227;46.752;23.576;2022-08-24T18:13:56;96463.20;;;23.32;58.30
61357;BME280;47227;46.752;23.576;2022-08-24T18:16:24;96465.09;;;23.23;58.61
61357;BME280;47227;46.752;23.576;2022-08-24T18:18:55;96467.46;;;23.12;58.76
61357;BME280;47227;46.752;23.576;2022-08-24T18:21:23;96470.36;;;23.01;59.65
61357;BME280;47227;46.752;23.576;2022-08-24T18:23:51;96472.75;;;22.87;59.90
61357;BME280;47227;46.752;23.576;2022-08-24T18:26:24;96473.58;;;22.71;60.31
61357;BME280;47227;46.752;23.576;2022-08-24T18:29:16;96472.80;;;22.58;60.64
61357;BME280;47227;46.752;23.576;2022-08-24T18:35:36;96479.19;;;22.31;62.37
61357;BME280;47227;46.752;23.576;2022-08-24T18:38:05;96479.66;;;22.24;61.99
61357;BME280;47227;46.752;23.576;2022-08-24T18:40:34;96479.95;;;22.19;61.86
61357;BME280;47227;46.752;23.576;2022-08-24T18:43:23;96480.82;;;22.16;62.22
61357;BME280;47227;46.752;23.576;2022-08-24T18:45:53;96483.59;;;22.12;62.32
61357;BME280;47227;46.752;23.576;2022-08-24T18:48:34;96481.39;;;22.08;62.29
61357;BME280;47227;46.752;23.576;2022-08-24T18:51:02;96479.23;;;22.08;62.41
61357;BME280;47227;46.752;23.576;2022-08-24T18:53:33;96477.60;;;22.07;62.36
61357;BME280;47227;46.752;23.576;2022-08-24T18:56:04;96478.29;;;22.06;62.62
61357;BME280;47227;46.752;23.576;2022-08-24T18:58:49;96480.62;;;22.01;64.45
61357;BME280;47227;46.752;23.576;2022-08-24T19:01:21;96480.22;;;21.97;63.91
61357;BME280;47227;46.752;23.576;2022-08-24T19:03:56;96484.00;;;21.93;63.72
61357;BME280;47227;46.752;23.576;2022-08-24T19:06:43;96483.30;;;21.90;63.74
61357;BME280;47227;46.752;23.576;2022-08-24T19:09:14;96482.30;;;21.90;63.85
61357;BME280;47227;46.752;23.576;2022-08-24T19:11:53;96482.27;;;21.91;63.91
61357;BME280;47227;46.752;23.576;2022-08-24T19:14:24;96483.61;;;21.92;64.70
61357;BME280;47227;46.752;23.576;2022-08-24T19:17:07;96486.23;;;21.94;65.01
61357;BME280;47227;46.752;23.576;2022-08-24T19:19:57;96488.95;;;21.96;64.68
61357;BME280;47227;46.752;23.576;2022-08-24T19:22:30;96485.05;;;21.99;65.29
61357;BME280;47227;46.752;23.576;2022-08-24T19:25:39;96496.10;;;22.01;64.94
61357;BME280;47227;46.752;23.576;2022-08-24T19:28:14;96492.52;;;22.03;64.81
61357;BME280;47227;46.752;23.576;2022-08-24T19:31:03;96495.89;;;22.05;64.77
61357;BME280;47227;46.752;23.576;2022-08-24T19:33:44;96498.38;;;22.04;64.93
61357;BME280;47227;46.752;23.576;2022-08-24T19:36:32;96498.09;;;22.03;64.90
61357;BME280;47227;46.752;23.576;2022-08-24T19:39:05;96494.45;;;22.01;64.91
61357;BME280;47227;46.752;23.576;2022-08-24T19:41:55;96496.67;;;22.00;64.85
61357;BME280;47227;46.752;23.576;2022-08-24T19:44:51;96497.50;;;21.94;65.10
61357;BME280;47227;46.752;23.576;2022-08-24T19:47:57;96502.61;;;21.88;65.04
61357;BME280;47227;46.752;23.576;2022-08-24T19:51:03;96506.23;;;21.79;65.27
61357;BME280;47227;46.752;23.576;2022-08-24T19:53:40;96506.09;;;21.69;65.29
61357;BME280;47227;46.752;23.576;2022-08-24T19:56:51;96505.83;;;21.60;65.57
61357;BME280;47227;46.752;23.576;2022-08-24T19:59:32;96504.23;;;21.50;65.75
61357;BME280;47227;46.752;23.576;2022-08-24T20:02:06;96506.70;;;21.39;65.96
61357;BME280;47227;46.752;23.576;2022-08-24T20:04:58;96511.23;;;21.30;66.15
61357;BME280;47227;46.752;23.576;2022-08-24T20:07:31;96516.34;;;21.21;66.35
61357;BME280;47227;46.752;23.576;2022-08-24T20:10:20;96519.25;;;21.11;67.08
61357;BME280;47227;46.752;23.576;2022-08-24T20:12:53;96523.02;;;21.02;67.50
61357;BME280;47227;46.752;23.576;2022-08-24T20:15:59;96519.80;;;20.95;67.80
61357;BME280;47227;46.752;23.576;2022-08-24T20:18:47;96523.70;;;20.91;67.93
61357;BME280;47227;46.752;23.576;2022-08-24T20:21:19;96523.86;;;20.88;67.87
61357;BME280;47227;46.752;23.576;2022-08-24T20:24:05;96521.92;;;20.87;68.63
61357;BME280;47227;46.752;23.576;2022-08-24T20:26:55;96527.88;;;20.84;68.94
61357;BME280;47227;46.752;23.576;2022-08-24T20:29:30;96521.21;;;20.82;69.00
61357;BME280;47227;46.752;23.576;2022-08-24T20:32:03;96515.69;;;20.81;68.97
61357;BME280;47227;46.752;23.576;2022-08-24T20:34:34;96516.38;;;20.80;68.89
61357;BME280;47227;46.752;23.576;2022-08-24T20:37:02;96519.91;;;20.79;68.96
61357;BME280;47227;46.752;23.576;2022-08-24T20:39:52;96521.13;;;20.77;69.46
61357;BME280;47227;46.752;23.576;2022-08-24T20:42:59;96520.89;;;20.74;69.45
61357;BME280;47227;46.752;23.576;2022-08-24T20:45:51;96520.59;;;20.71;69.77
61357;BME280;47227;46.752;23.576;2022-08-24T20:48:42;96518.43;;;20.66;70.02
61357;BME280;47227;46.752;23.576;2022-08-24T20:51:24;96525.63;;;20.62;70.12
61357;BME280;47227;46.752;23.576;2022-08-24T20:54:12;96525.07;;;20.58;70.19
61357;BME280;47227;46.752;23.576;2022-08-24T20:57:08;96523.86;;;20.53;70.07
61357;BME280;47227;46.752;23.576;2022-08-24T20:59:59;96528.54;;;20.46;70.13
61357;BME280;47227;46.752;23.576;2022-08-24T21:02:28;96529.51;;;20.39;70.19
61357;BME280;47227;46.752;23.576;2022-08-24T21:05:32;96529.15;;;20.32;70.60
61357;BME280;47227;46.752;23.576;2022-08-24T21:08:41;96532.67;;;20.22;71.21
61357;BME280;47227;46.752;23.576;2022-08-24T21:11:09;96535.00;;;20.14;71.51
61357;BME280;47227;46.752;23.576;2022-08-24T21:13:41;96534.93;;;20.08;71.55
61357;BME280;47227;46.752;23.576;2022-08-24T21:16:13;96538.66;;;20.04;71.62
61357;BME280;47227;46.752;23.576;2022-08-24T21:18:46;96538.59;;;20.02;72.36
61357;BME280;47227;46.752;23.576;2022-08-24T21:21:14;96536.62;;;20.00;73.11
61357;BME280;47227;46.752;23.576;2022-08-24T21:24:08;96539.42;;;19.98;73.92
61357;BME280;47227;46.752;23.576;2022-08-24T21:26:37;96533.15;;;19.97;73.60
61357;BME280;47227;46.752;23.576;2022-08-24T21:29:37;96536.94;;;19.97;73.27
61357;BME280;47227;46.752;23.576;2022-08-24T21:32:26;96539.73;;;19.94;73.41
61357;BME280;47227;46.752;23.576;2022-08-24T21:35:24;96538.73;;;19.91;72.88
61357;BME280;47227;46.752;23.576;2022-08-24T21:37:53;96534.25;;;19.86;72.85
61357;BME280;47227;46.752;23.576;2022-08-24T21:40:42;96528.80;;;19.80;73.67
61357;BME280;47227;46.752;23.576;2022-08-24T21:43:13;96531.16;;;19.72;74.09
61357;BME280;47227;46.752;23.576;2022-08-24T21:45:56;96527.56;;;19.68;73.58
61357;BME280;47227;46.752;23.576;2022-08-24T21:48:29;96528.39;;;19.65;74.01
61357;BME280;47227;46.752;23.576;2022-08-24T21:51:00;96528.95;;;19.64;74.41
61357;BME280;47227;46.752;23.576;2022-08-24T21:53:32;96530.61;;;19.65;75.23
61357;BME280;47227;46.752;23.576;2022-08-24T21:56:35;96526.46;;;19.67;74.51
61357;BME280;47227;46.752;23.576;2022-08-24T21:59:10;96521.98;;;19.70;74.70
61357;BME280;47227;46.752;23.576;2022-08-24T22:01:38;96520.76;;;19.73;74.50
61357;BME280;47227;46.752;23.576;2022-08-24T22:04:48;96523.59;;;19.75;74.37
61357;BME280;47227;46.752;23.576;2022-08-24T22:07:23;96525.19;;;19.77;74.27
61357;BME280;47227;46.752;23.576;2022-08-24T22:09:52;96526.02;;;19.78;74.01
61357;BME280;47227;46.752;23.576;2022-08-24T22:12:21;96525.86;;;19.80;73.98
61357;BME280;47227;46.752;23.576;2022-08-24T22:15:12;96527.46;;;19.77;73.89
61357;BME280;47227;46.752;23.576;2022-08-24T22:17:50;96529.77;;;19.75;74.00
61357;BME280;47227;46.752;23.576;2022-08-24T22:20:49;96524.94;;;19.71;73.62
61357;BME280;47227;46.752;23.576;2022-08-24T22:23:23;96528.80;;;19.68;73.51
61357;BME280;47227;46.752;23.576;2022-08-24T22:26:11;96524.00;;;19.64;73.45
61357;BME280;47227;46.752;23.576;2022-08-24T22:29:01;96523.85;;;19.58;73.72
61357;BME280;47227;46.752;23.576;2022-08-24T22:31:51;96517.62;;;19.54;73.54
61357;BME280;47227;46.752;23.576;2022-08-24T22:34:20;96513.88;;;19.50;73.49
61357;BME280;47227;46.752;23.576;2022-08-24T22:37:12;96515.24;;;19.45;73.74
61357;BME280;47227;46.752;23.576;2022-08-24T22:40:01;96508.05;;;19.43;73.66
61357;BME280;47227;46.752;23.576;2022-08-24T22:43:12;96510.74;;;19.42;74.06
61357;BME280;47227;46.752;23.576;2022-08-24T22:46:00;96510.44;;;19.42;73.86
61357;BME280;47227;46.752;23.576;2022-08-24T22:48:42;96508.55;;;19.42;73.82
61357;BME280;47227;46.752;23.576;2022-08-24T22:51:37;96510.01;;;19.44;73.93
61357;BME280;47227;46.752;23.576;2022-08-24T22:57:19;96501.55;;;19.47;74.04
61357;BME280;47227;46.752;23.576;2022-08-24T22:59:47;96504.19;;;19.48;74.26
61357;BME280;47227;46.752;23.576;2022-08-24T23:02:15;96502.27;;;19.47;74.25
61357;BME280;47227;46.752;23.576;2022-08-24T23:04:48;96501.75;;;19.48;74.31
61357;BME280;47227;46.752;23.576;2022-08-24T23:07:17;96497.05;;;19.46;74.22
61357;BME280;47227;46.752;23.576;2022-08-24T23:09:46;96493.35;;;19.46;74.08
61357;BME280;47227;46.752;23.576;2022-08-24T23:12:18;96491.90;;;19.42;74.01
61357;BME280;47227;46.752;23.576;2022-08-24T23:15:00;96490.55;;;19.37;73.90
61357;BME280;47227;46.752;23.576;2022-08-24T23:17:28;96489.34;;;19.32;74.17
61357;BME280;47227;46.752;23.576;2022-08-24T23:19:56;96487.64;;;19.28;74.07
61357;BME280;47227;46.752;23.576;2022-08-24T23:22:32;96488.44;;;19.22;73.98
61357;BME280;47227;46.752;23.576;2022-08-24T23:25:01;96488.45;;;19.16;73.95
61357;BME280;47227;46.752;23.576;2022-08-24T23:27:29;96480.05;;;19.11;74.15
61357;BME280;47227;46.752;23.576;2022-08-24T23:30:09;96478.21;;;19.07;74.46
61357;BME280;47227;46.752;23.576;2022-08-24T23:32:38;96477.05;;;19.04;74.49
61357;BME280;47227;46.752;23.576;2022-08-24T23:35:06;96475.28;;;19.02;75.37
61357;BME280;47227;46.752;23.576;2022-08-24T23:37:35;96474.98;;;19.00;74.88
61357;BME280;47227;46.752;23.576;2022-08-24T23:40:03;96478.23;;;19.00;75.07
61357;BME280;47227;46.752;23.576;2022-08-24T23:42:32;96473.25;;;18.99;74.90
61357;BME280;47227;46.752;23.576;2022-08-24T23:45:00;96477.27;;;18.99;74.85
61357;BME280;47227;46.752;23.576;2022-08-24T23:47:30;96479.86;;;18.99;74.89
61357;BME280;47227;46.752;23.576;2022-08-24T23:50:04;96480.30;;;18.98;74.86
61357;BME280;47227;46.752;23.576;2022-08-24T23:52:38;96482.60;;;18.99;75.21
61357;BME280;47227;46.752;23.576;2022-08-24T23:55:07;96480.75;;;19.02;74.93
61357;BME280;47227;46.752;23.576;2022-08-24T23:58:09;96476.81;;;19.05;75.05
